Terminal Aerodrome Forecast
Issued by NWS Atlanta, GA

Home | Current Version | Previous Version | Text Only | Print | Product List | Glossary On
Versions: 1 2 3 4 5 6 7 8 9 10 11 12 13 14 15 16 17 18 19 20 21 22 23 24 25 26 27 28 29 30 31 32
000
FTAK31 PAJN 201200 AAA
TAFAHN
TAF AMD
PAHN 201209Z 2012/2112 VRB05KT 6SM -SHRA BR SCT009 BKN018 OVC040
     FM201500 09008KT 6SM -SHRA BKN020 OVC030
     FM202100 12010G15KT P6SM -SHRA SCT015 OVC025
     FM210200 10008KT P6SM -SHRA SCT025 OVC050
     FM210700 VRB05KT P6SM VCSH SCT025 BKN050
      AMD LTD TO CLD VIS AND WIND=

USA.gov is the U.S. government's official web portal to all federal, state and local government web resources and services.